sensor_id;sensor_type;location;lat;lon;timestamp;P1;durP1;ratioP1;P2;durP2;ratioP2
55931;SDS011;41837;55.700;37.984;2023-04-07T00:02:14;10.38;;;4.22;;
55931;SDS011;41837;55.700;37.984;2023-04-07T00:04:40;10.63;;;3.92;;
55931;SDS011;41837;55.700;37.984;2023-04-07T00:07:07;8.75;;;4.05;;
55931;SDS011;41837;55.700;37.984;2023-04-07T00:09:33;14.75;;;4.13;;
55931;SDS011;41837;55.700;37.984;2023-04-07T00:12:00;14.50;;;4.40;;
55931;SDS011;41837;55.700;37.984;2023-04-07T00:14:27;16.27;;;4.65;;
55931;SDS011;41837;55.700;37.984;2023-04-07T00:16:53;19.50;;;4.80;;
55931;SDS011;41837;55.700;37.984;2023-04-07T00:19:20;22.67;;;6.22;;
55931;SDS011;41837;55.700;37.984;2023-04-07T00:21:46;18.80;;;5.38;;
55931;SDS011;41837;55.700;37.984;2023-04-07T00:24:12;18.35;;;4.97;;
55931;SDS011;41837;55.700;37.984;2023-04-07T00:26:38;10.05;;;3.80;;
55931;SDS011;41837;55.700;37.984;2023-04-07T00:29:04;10.60;;;4.68;;
55931;SDS011;41837;55.700;37.984;2023-04-07T00:31:31;9.32;;;4.07;;
55931;SDS011;41837;55.700;37.984;2023-04-07T00:33:57;10.63;;;4.53;;
55931;SDS011;41837;55.700;37.984;2023-04-07T00:36:25;11.30;;;4.93;;
55931;SDS011;41837;55.700;37.984;2023-04-07T00:38:51;12.48;;;4.90;;
55931;SDS011;41837;55.700;37.984;2023-04-07T00:41:18;9.27;;;3.85;;
55931;SDS011;41837;55.700;37.984;2023-04-07T00:43:44;10.50;;;4.55;;
55931;SDS011;41837;55.700;37.984;2023-04-07T00:46:10;8.98;;;3.83;;
55931;SDS011;41837;55.700;37.984;2023-04-07T00:48:37;11.95;;;3.92;;
55931;SDS011;41837;55.700;37.984;2023-04-07T00:51:04;10.38;;;4.13;;
55931;SDS011;41837;55.700;37.984;2023-04-07T00:53:32;10.50;;;3.88;;
55931;SDS011;41837;55.700;37.984;2023-04-07T00:55:58;10.73;;;4.10;;
55931;SDS011;41837;55.700;37.984;2023-04-07T00:58:24;9.07;;;4.07;;
55931;SDS011;41837;55.700;37.984;2023-04-07T01:00:53;9.68;;;4.20;;
55931;SDS011;41837;55.700;37.984;2023-04-07T01:03:56;11.82;;;4.00;;
55931;SDS011;41837;55.700;37.984;2023-04-07T01:06:27;9.18;;;3.45;;
55931;SDS011;41837;55.700;37.984;2023-04-07T01:09:04;13.27;;;3.80;;
55931;SDS011;41837;55.700;37.984;2023-04-07T01:14:14;9.43;;;3.58;;
55931;SDS011;41837;55.700;37.984;2023-04-07T01:16:55;7.32;;;2.50;;
55931;SDS011;41837;55.700;37.984;2023-04-07T01:22:37;8.07;;;2.83;;
55931;SDS011;41837;55.700;37.984;2023-04-07T01:25:17;9.02;;;3.10;;
55931;SDS011;41837;55.700;37.984;2023-04-07T01:30:19;6.07;;;2.80;;
55931;SDS011;41837;55.700;37.984;2023-04-07T01:32:49;7.32;;;2.33;;
55931;SDS011;41837;55.700;37.984;2023-04-07T01:35:19;6.07;;;2.50;;
55931;SDS011;41837;55.700;37.984;2023-04-07T01:37:47;4.90;;;2.25;;
55931;SDS011;41837;55.700;37.984;2023-04-07T01:40:15;4.60;;;2.00;;
55931;SDS011;41837;55.700;37.984;2023-04-07T01:42:43;4.30;;;2.20;;
55931;SDS011;41837;55.700;37.984;2023-04-07T01:45:11;5.88;;;2.13;;
55931;SDS011;41837;55.700;37.984;2023-04-07T01:47:39;6.53;;;2.38;;
55931;SDS011;41837;55.700;37.984;2023-04-07T01:50:06;7.95;;;2.33;;
55931;SDS011;41837;55.700;37.984;2023-04-07T01:52:36;5.20;;;2.50;;
55931;SDS011;41837;55.700;37.984;2023-04-07T01:55:04;6.93;;;2.72;;
55931;SDS011;41837;55.700;37.984;2023-04-07T01:57:38;6.03;;;2.88;;
55931;SDS011;41837;55.700;37.984;2023-04-07T02:00:11;8.13;;;2.95;;
55931;SDS011;41837;55.700;37.984;2023-04-07T02:02:42;6.75;;;3.00;;
55931;SDS011;41837;55.700;37.984;2023-04-07T02:05:12;8.70;;;3.85;;
55931;SDS011;41837;55.700;37.984;2023-04-07T02:07:49;6.65;;;3.38;;
55931;SDS011;41837;55.700;37.984;2023-04-07T02:10:23;7.32;;;3.72;;
55931;SDS011;41837;55.700;37.984;2023-04-07T02:12:54;7.45;;;3.47;;
55931;SDS011;41837;55.700;37.984;2023-04-07T02:15:21;9.88;;;3.88;;
55931;SDS011;41837;55.700;37.984;2023-04-07T02:17:50;8.43;;;3.58;;
55931;SDS011;41837;55.700;37.984;2023-04-07T02:20:19;14.32;;;3.80;;
55931;SDS011;41837;55.700;37.984;2023-04-07T02:22:46;9.88;;;4.05;;
55931;SDS011;41837;55.700;37.984;2023-04-07T02:25:46;8.23;;;3.30;;
55931;SDS011;41837;55.700;37.984;2023-04-07T02:28:06;5.80;;;3.10;;
55931;SDS011;41837;55.700;37.984;2023-04-07T02:30:32;8.20;;;3.00;;
55931;SDS011;41837;55.700;37.984;2023-04-07T02:32:59;10.00;;;3.38;;
55931;SDS011;41837;55.700;37.984;2023-04-07T02:35:28;13.63;;;3.83;;
55931;SDS011;41837;55.700;37.984;2023-04-07T02:37:54;8.43;;;3.40;;
55931;SDS011;41837;55.700;37.984;2023-04-07T02:40:20;12.02;;;4.15;;
55931;SDS011;41837;55.700;37.984;2023-04-07T02:42:47;18.17;;;4.85;;
55931;SDS011;41837;55.700;37.984;2023-04-07T02:45:13;15.48;;;4.32;;
55931;SDS011;41837;55.700;37.984;2023-04-07T02:47:39;16.92;;;4.80;;
55931;SDS011;41837;55.700;37.984;2023-04-07T02:50:06;12.88;;;3.97;;
55931;SDS011;41837;55.700;37.984;2023-04-07T02:52:34;17.52;;;4.55;;
55931;SDS011;41837;55.700;37.984;2023-04-07T02:55:03;19.10;;;4.22;;
55931;SDS011;41837;55.700;37.984;2023-04-07T02:57:30;12.57;;;3.70;;
55931;SDS011;41837;55.700;37.984;2023-04-07T03:00:00;17.75;;;4.60;;
55931;SDS011;41837;55.700;37.984;2023-04-07T03:02:41;15.90;;;3.38;;
55931;SDS011;41837;55.700;37.984;2023-04-07T03:05:08;12.65;;;3.55;;
55931;SDS011;41837;55.700;37.984;2023-04-07T03:07:34;12.68;;;3.33;;
55931;SDS011;41837;55.700;37.984;2023-04-07T03:10:02;12.65;;;3.17;;
55931;SDS011;41837;55.700;37.984;2023-04-07T03:12:30;6.40;;;2.90;;
55931;SDS011;41837;55.700;37.984;2023-04-07T03:14:56;7.47;;;3.20;;
55931;SDS011;41837;55.700;37.984;2023-04-07T03:17:23;8.10;;;2.85;;
55931;SDS011;41837;55.700;37.984;2023-04-07T03:19:49;10.93;;;3.47;;
55931;SDS011;41837;55.700;37.984;2023-04-07T03:22:18;8.57;;;2.80;;
55931;SDS011;41837;55.700;37.984;2023-04-07T03:24:48;7.93;;;3.10;;
55931;SDS011;41837;55.700;37.984;2023-04-07T03:27:14;10.88;;;3.05;;
55931;SDS011;41837;55.700;37.984;2023-04-07T03:29:44;11.70;;;2.42;;
55931;SDS011;41837;55.700;37.984;2023-04-07T03:32:13;8.18;;;2.67;;
55931;SDS011;41837;55.700;37.984;2023-04-07T03:34:39;4.68;;;2.83;;
55931;SDS011;41837;55.700;37.984;2023-04-07T03:37:05;7.63;;;3.45;;
55931;SDS011;41837;55.700;37.984;2023-04-07T03:39:34;6.93;;;3.08;;
55931;SDS011;41837;55.700;37.984;2023-04-07T03:42:09;7.25;;;2.65;;
55931;SDS011;41837;55.700;37.984;2023-04-07T03:44:35;5.55;;;2.78;;
55931;SDS011;41837;55.700;37.984;2023-04-07T03:47:02;6.38;;;3.40;;
55931;SDS011;41837;55.700;37.984;2023-04-07T03:49:29;10.43;;;3.50;;
55931;SDS011;41837;55.700;37.984;2023-04-07T03:51:59;6.95;;;2.80;;
55931;SDS011;41837;55.700;37.984;2023-04-07T03:54:25;6.13;;;2.75;;
55931;SDS011;41837;55.700;37.984;2023-04-07T03:56:51;5.78;;;2.53;;
55931;SDS011;41837;55.700;37.984;2023-04-07T03:59:21;5.97;;;3.58;;
55931;SDS011;41837;55.700;37.984;2023-04-07T04:01:56;7.28;;;2.72;;
55931;SDS011;41837;55.700;37.984;2023-04-07T04:04:23;5.28;;;2.63;;
55931;SDS011;41837;55.700;37.984;2023-04-07T04:06:50;5.35;;;3.05;;
55931;SDS011;41837;55.700;37.984;2023-04-07T04:09:22;9.23;;;3.20;;
55931;SDS011;41837;55.700;37.984;2023-04-07T04:11:48;9.90;;;2.80;;
55931;SDS011;41837;55.700;37.984;2023-04-07T04:14:16;7.03;;;3.00;;
55931;SDS011;41837;55.700;37.984;2023-04-07T04:16:50;11.10;;;3.60;;
55931;SDS011;41837;55.700;37.984;2023-04-07T04:19:33;7.03;;;2.88;;
55931;SDS011;41837;55.700;37.984;2023-04-07T04:22:06;6.72;;;2.22;;
55931;SDS011;41837;55.700;37.984;2023-04-07T04:24:39;12.75;;;2.92;;
55931;SDS011;41837;55.700;37.984;2023-04-07T04:27:07;8.80;;;3.50;;
55931;SDS011;41837;55.700;37.984;2023-04-07T04:29:35;5.07;;;2.40;;
55931;SDS011;41837;55.700;37.984;2023-04-07T04:32:04;10.35;;;2.65;;
55931;SDS011;41837;55.700;37.984;2023-04-07T04:34:30;5.35;;;2.38;;
55931;SDS011;41837;55.700;37.984;2023-04-07T04:36:57;7.53;;;2.47;;
55931;SDS011;41837;55.700;37.984;2023-04-07T04:39:24;5.18;;;2.42;;
55931;SDS011;41837;55.700;37.984;2023-04-07T04:41:50;9.82;;;2.65;;
55931;SDS011;41837;55.700;37.984;2023-04-07T04:44:19;5.32;;;3.03;;
55931;SDS011;41837;55.700;37.984;2023-04-07T04:46:45;5.80;;;2.60;;
55931;SDS011;41837;55.700;37.984;2023-04-07T04:49:12;5.85;;;2.60;;
55931;SDS011;41837;55.700;37.984;2023-04-07T04:51:39;8.02;;;2.47;;
55931;SDS011;41837;55.700;37.984;2023-04-07T04:54:12;5.38;;;2.72;;
55931;SDS011;41837;55.700;37.984;2023-04-07T04:56:39;5.00;;;2.35;;
55931;SDS011;41837;55.700;37.984;2023-04-07T04:59:05;5.50;;;2.42;;
55931;SDS011;41837;55.700;37.984;2023-04-07T05:01:40;8.40;;;2.97;;
55931;SDS011;41837;55.700;37.984;2023-04-07T05:04:10;6.78;;;2.28;;
55931;SDS011;41837;55.700;37.984;2023-04-07T05:06:42;10.45;;;2.83;;
55931;SDS011;41837;55.700;37.984;2023-04-07T05:09:11;9.95;;;2.65;;
55931;SDS011;41837;55.700;37.984;2023-04-07T05:11:43;6.47;;;2.67;;
55931;SDS011;41837;55.700;37.984;2023-04-07T05:14:10;6.88;;;2.90;;
55931;SDS011;41837;55.700;37.984;2023-04-07T05:16:41;6.82;;;2.60;;
55931;SDS011;41837;55.700;37.984;2023-04-07T05:19:14;7.05;;;2.60;;
55931;SDS011;41837;55.700;37.984;2023-04-07T05:21:42;6.95;;;2.70;;
55931;SDS011;41837;55.700;37.984;2023-04-07T05:24:09;10.38;;;3.40;;
55931;SDS011;41837;55.700;37.984;2023-04-07T05:26:36;7.93;;;3.17;;
55931;SDS011;41837;55.700;37.984;2023-04-07T05:29:03;17.60;;;3.10;;
55931;SDS011;41837;55.700;37.984;2023-04-07T05:31:29;9.63;;;2.90;;
55931;SDS011;41837;55.700;37.984;2023-04-07T05:33:58;6.72;;;3.05;;
55931;SDS011;41837;55.700;37.984;2023-04-07T05:36:28;12.52;;;2.80;;
55931;SDS011;41837;55.700;37.984;2023-04-07T05:38:57;11.95;;;2.55;;
55931;SDS011;41837;55.700;37.984;2023-04-07T05:41:24;5.43;;;2.65;;
55931;SDS011;41837;55.700;37.984;2023-04-07T05:43:50;6.03;;;2.90;;
55931;SDS011;41837;55.700;37.984;2023-04-07T05:46:17;11.45;;;3.20;;
55931;SDS011;41837;55.700;37.984;2023-04-07T05:48:51;9.75;;;3.13;;
55931;SDS011;41837;55.700;37.984;2023-04-07T05:51:19;6.85;;;2.97;;
55931;SDS011;41837;55.700;37.984;2023-04-07T05:53:45;6.22;;;2.35;;
55931;SDS011;41837;55.700;37.984;2023-04-07T05:56:11;5.18;;;2.75;;
55931;SDS011;41837;55.700;37.984;2023-04-07T05:58:43;12.88;;;3.15;;
55931;SDS011;41837;55.700;37.984;2023-04-07T06:01:11;5.10;;;2.85;;
55931;SDS011;41837;55.700;37.984;2023-04-07T06:03:37;3.78;;;2.85;;
55931;SDS011;41837;55.700;37.984;2023-04-07T06:06:23;6.95;;;3.13;;
55931;SDS011;41837;55.700;37.984;2023-04-07T06:08:49;8.27;;;2.70;;
55931;SDS011;41837;55.700;37.984;2023-04-07T06:11:16;6.53;;;2.58;;
55931;SDS011;41837;55.700;37.984;2023-04-07T06:13:42;12.15;;;2.70;;
55931;SDS011;41837;55.700;37.984;2023-04-07T06:16:08;17.10;;;3.22;;
55931;SDS011;41837;55.700;37.984;2023-04-07T06:18:36;7.68;;;2.47;;
55931;SDS011;41837;55.700;37.984;2023-04-07T06:21:05;10.73;;;2.72;;
55931;SDS011;41837;55.700;37.984;2023-04-07T06:23:32;5.95;;;2.63;;
55931;SDS011;41837;55.700;37.984;2023-04-07T06:25:58;7.47;;;2.25;;
55931;SDS011;41837;55.700;37.984;2023-04-07T06:28:24;8.07;;;2.88;;
55931;SDS011;41837;55.700;37.984;2023-04-07T06:30:51;8.02;;;2.95;;
55931;SDS011;41837;55.700;37.984;2023-04-07T06:33:17;8.68;;;2.63;;
55931;SDS011;41837;55.700;37.984;2023-04-07T06:35:44;12.73;;;2.95;;
55931;SDS011;41837;55.700;37.984;2023-04-07T06:38:11;11.55;;;3.08;;
55931;SDS011;41837;55.700;37.984;2023-04-07T06:40:37;7.70;;;2.97;;
55931;SDS011;41837;55.700;37.984;2023-04-07T06:43:03;7.82;;;2.45;;
55931;SDS011;41837;55.700;37.984;2023-04-07T06:45:43;12.60;;;2.90;;
55931;SDS011;41837;55.700;37.984;2023-04-07T06:48:09;11.63;;;3.10;;
55931;SDS011;41837;55.700;37.984;2023-04-07T06:50:35;10.25;;;3.13;;
55931;SDS011;41837;55.700;37.984;2023-04-07T06:53:03;8.50;;;2.72;;
55931;SDS011;41837;55.700;37.984;2023-04-07T06:55:29;9.80;;;2.22;;
55931;SDS011;41837;55.700;37.984;2023-04-07T06:57:56;11.25;;;2.80;;
55931;SDS011;41837;55.700;37.984;2023-04-07T07:00:22;11.73;;;2.80;;
55931;SDS011;41837;55.700;37.984;2023-04-07T07:02:49;5.75;;;2.60;;
55931;SDS011;41837;55.700;37.984;2023-04-07T07:05:15;7.95;;;2.95;;
55931;SDS011;41837;55.700;37.984;2023-04-07T07:07:41;15.15;;;3.25;;
55931;SDS011;41837;55.700;37.984;2023-04-07T07:10:07;10.13;;;2.40;;
55931;SDS011;41837;55.700;37.984;2023-04-07T07:12:35;13.18;;;2.70;;
55931;SDS011;41837;55.700;37.984;2023-04-07T07:15:02;8.27;;;2.28;;
55931;SDS011;41837;55.700;37.984;2023-04-07T07:17:29;7.32;;;2.40;;
55931;SDS011;41837;55.700;37.984;2023-04-07T07:19:55;16.52;;;3.22;;
55931;SDS011;41837;55.700;37.984;2023-04-07T07:22:21;5.32;;;2.15;;
55931;SDS011;41837;55.700;37.984;2023-04-07T07:24:47;6.35;;;2.58;;
55931;SDS011;41837;55.700;37.984;2023-04-07T07:27:13;7.07;;;2.35;;
55931;SDS011;41837;55.700;37.984;2023-04-07T07:29:40;7.40;;;2.38;;
55931;SDS011;41837;55.700;37.984;2023-04-07T07:32:07;7.20;;;2.97;;
55931;SDS011;41837;55.700;37.984;2023-04-07T07:34:33;8.40;;;2.60;;
55931;SDS011;41837;55.700;37.984;2023-04-07T07:36:59;4.93;;;1.92;;
55931;SDS011;41837;55.700;37.984;2023-04-07T07:39:25;8.82;;;3.13;;
55931;SDS011;41837;55.700;37.984;2023-04-07T07:41:51;9.77;;;2.65;;
55931;SDS011;41837;55.700;37.984;2023-04-07T07:44:18;11.32;;;2.35;;
55931;SDS011;41837;55.700;37.984;2023-04-07T07:46:47;16.45;;;3.30;;
55931;SDS011;41837;55.700;37.984;2023-04-07T07:49:15;10.95;;;2.40;;
55931;SDS011;41837;55.700;37.984;2023-04-07T07:51:41;16.75;;;3.80;;
55931;SDS011;41837;55.700;37.984;2023-04-07T07:54:07;14.40;;;4.90;;
55931;SDS011;41837;55.700;37.984;2023-04-07T07:56:34;11.40;;;3.45;;
55931;SDS011;41837;55.700;37.984;2023-04-07T07:59:00;9.95;;;2.30;;
55931;SDS011;41837;55.700;37.984;2023-04-07T08:01:26;6.53;;;2.25;;
55931;SDS011;41837;55.700;37.984;2023-04-07T08:03:52;6.30;;;1.45;;
55931;SDS011;41837;55.700;37.984;2023-04-07T08:06:18;8.07;;;1.90;;
55931;SDS011;41837;55.700;37.984;2023-04-07T08:08:44;5.57;;;2.30;;
55931;SDS011;41837;55.700;37.984;2023-04-07T08:11:10;13.20;;;1.92;;
55931;SDS011;41837;55.700;37.984;2023-04-07T08:13:37;8.77;;;2.10;;
55931;SDS011;41837;55.700;37.984;2023-04-07T08:16:04;13.25;;;3.92;;
55931;SDS011;41837;55.700;37.984;2023-04-07T08:18:31;9.32;;;3.15;;
55931;SDS011;41837;55.700;37.984;2023-04-07T08:20:57;12.80;;;1.70;;
55931;SDS011;41837;55.700;37.984;2023-04-07T08:23:23;6.63;;;1.50;;
55931;SDS011;41837;55.700;37.984;2023-04-07T08:25:50;14.27;;;3.40;;
55931;SDS011;41837;55.700;37.984;2023-04-07T08:28:16;6.43;;;2.33;;
55931;SDS011;41837;55.700;37.984;2023-04-07T08:30:42;6.70;;;1.70;;
55931;SDS011;41837;55.700;37.984;2023-04-07T08:33:08;15.77;;;4.68;;
55931;SDS011;41837;55.700;37.984;2023-04-07T08:35:34;3.20;;;1.50;;
55931;SDS011;41837;55.700;37.984;2023-04-07T08:38:00;9.88;;;2.28;;
55931;SDS011;41837;55.700;37.984;2023-04-07T08:40:27;15.68;;;2.63;;
55931;SDS011;41837;55.700;37.984;2023-04-07T08:42:54;18.13;;;3.67;;
55931;SDS011;41837;55.700;37.984;2023-04-07T08:45:23;9.68;;;2.72;;
55931;SDS011;41837;55.700;37.984;2023-04-07T08:47:50;7.45;;;2.60;;
55931;SDS011;41837;55.700;37.984;2023-04-07T08:50:21;12.23;;;2.47;;
55931;SDS011;41837;55.700;37.984;2023-04-07T08:52:52;3.65;;;0.90;;
55931;SDS011;41837;55.700;37.984;2023-04-07T08:55:20;3.53;;;1.45;;
55931;SDS011;41837;55.700;37.984;2023-04-07T08:57:47;4.65;;;1.30;;
55931;SDS011;41837;55.700;37.984;2023-04-07T09:00:13;4.07;;;1.10;;
55931;SDS011;41837;55.700;37.984;2023-04-07T09:02:41;2.80;;;0.88;;
55931;SDS011;41837;55.700;37.984;2023-04-07T09:05:10;8.90;;;1.30;;
55931;SDS011;41837;55.700;37.984;2023-04-07T09:07:38;7.70;;;1.27;;
55931;SDS011;41837;55.700;37.984;2023-04-07T09:10:10;2.28;;;1.00;;
55931;SDS011;41837;55.700;37.984;2023-04-07T09:12:36;4.90;;;1.40;;
55931;SDS011;41837;55.700;37.984;2023-04-07T09:15:05;10.50;;;2.50;;
55931;SDS011;41837;55.700;37.984;2023-04-07T09:17:32;4.10;;;1.60;;
55931;SDS011;41837;55.700;37.984;2023-04-07T09:19:59;3.85;;;1.15;;
55931;SDS011;41837;55.700;37.984;2023-04-07T09:27:39;4.43;;;1.50;;
55931;SDS011;41837;55.700;37.984;2023-04-07T09:30:12;3.75;;;1.48;;
55931;SDS011;41837;55.700;37.984;2023-04-07T09:32:40;7.40;;;1.65;;
55931;SDS011;41837;55.700;37.984;2023-04-07T09:35:07;11.82;;;1.52;;
55931;SDS011;41837;55.700;37.984;2023-04-07T09:37:33;7.25;;;1.55;;
55931;SDS011;41837;55.700;37.984;2023-04-07T09:39:59;9.25;;;1.50;;
55931;SDS011;41837;55.700;37.984;2023-04-07T09:42:26;9.63;;;2.13;;
55931;SDS011;41837;55.700;37.984;2023-04-07T09:44:59;8.10;;;1.92;;
55931;SDS011;41837;55.700;37.984;2023-04-07T09:47:26;4.57;;;2.00;;
55931;SDS011;41837;55.700;37.984;2023-04-07T09:49:53;4.20;;;1.42;;
55931;SDS011;41837;55.700;37.984;2023-04-07T09:55:19;8.52;;;1.40;;
55931;SDS011;41837;55.700;37.984;2023-04-07T09:57:50;5.22;;;1.20;;
55931;SDS011;41837;55.700;37.984;2023-04-07T10:00:17;3.85;;;1.00;;
55931;SDS011;41837;55.700;37.984;2023-04-07T10:02:43;6.15;;;1.33;;
55931;SDS011;41837;55.700;37.984;2023-04-07T10:05:11;4.75;;;1.10;;
55931;SDS011;41837;55.700;37.984;2023-04-07T10:07:37;5.68;;;1.75;;
55931;SDS011;41837;55.700;37.984;2023-04-07T10:10:04;3.47;;;1.30;;
55931;SDS011;41837;55.700;37.984;2023-04-07T10:12:33;5.00;;;1.40;;
55931;SDS011;41837;55.700;37.984;2023-04-07T10:15:01;5.15;;;1.10;;
55931;SDS011;41837;55.700;37.984;2023-04-07T10:17:30;2.38;;;1.10;;
55931;SDS011;41837;55.700;37.984;2023-04-07T10:19:57;6.38;;;1.33;;
55931;SDS011;41837;55.700;37.984;2023-04-07T10:22:24;3.55;;;1.40;;
55931;SDS011;41837;55.700;37.984;2023-04-07T10:27:40;6.53;;;1.50;;
55931;SDS011;41837;55.700;37.984;2023-04-07T10:30:21;7.10;;;1.85;;
55931;SDS011;41837;55.700;37.984;2023-04-07T10:32:57;3.28;;;0.93;;
55931;SDS011;41837;55.700;37.984;2023-04-07T10:35:24;2.95;;;0.98;;
55931;SDS011;41837;55.700;37.984;2023-04-07T10:40:33;5.88;;;1.58;;
55931;SDS011;41837;55.700;37.984;2023-04-07T10:43:00;4.25;;;1.30;;
55931;SDS011;41837;55.700;37.984;2023-04-07T10:48:11;8.13;;;1.40;;
55931;SDS011;41837;55.700;37.984;2023-04-07T10:50:38;4.38;;;0.93;;
55931;SDS011;41837;55.700;37.984;2023-04-07T10:53:06;2.10;;;0.77;;
55931;SDS011;41837;55.700;37.984;2023-04-07T10:58:13;7.05;;;1.30;;
55931;SDS011;41837;55.700;37.984;2023-04-07T11:03:37;6.65;;;1.27;;
55931;SDS011;41837;55.700;37.984;2023-04-07T11:06:06;2.65;;;1.10;;
55931;SDS011;41837;55.700;37.984;2023-04-07T11:08:37;7.93;;;1.52;;
55931;SDS011;41837;55.700;37.984;2023-04-07T11:11:08;8.68;;;1.70;;
55931;SDS011;41837;55.700;37.984;2023-04-07T11:13:39;10.55;;;2.00;;
55931;SDS011;41837;55.700;37.984;2023-04-07T11:16:09;5.80;;;1.65;;
55931;SDS011;41837;55.700;37.984;2023-04-07T11:18:36;4.80;;;1.38;;
55931;SDS011;41837;55.700;37.984;2023-04-07T11:21:03;13.20;;;2.00;;
55931;SDS011;41837;55.700;37.984;2023-04-07T11:23:42;7.53;;;1.90;;
55931;SDS011;41837;55.700;37.984;2023-04-07T11:26:11;4.55;;;1.52;;
55931;SDS011;41837;55.700;37.984;2023-04-07T11:28:49;15.57;;;1.77;;
55931;SDS011;41837;55.700;37.984;2023-04-07T11:31:26;5.03;;;1.20;;
55931;SDS011;41837;55.700;37.984;2023-04-07T11:33:53;3.80;;;1.05;;
55931;SDS011;41837;55.700;37.984;2023-04-07T11:36:54;3.47;;;1.10;;
55931;SDS011;41837;55.700;37.984;2023-04-07T11:39:19;6.15;;;1.40;;
55931;SDS011;41837;55.700;37.984;2023-04-07T11:41:47;5.47;;;1.13;;
55931;SDS011;41837;55.700;37.984;2023-04-07T11:44:15;5.70;;;1.25;;
55931;SDS011;41837;55.700;37.984;2023-04-07T11:49:25;5.85;;;1.45;;
55931;SDS011;41837;55.700;37.984;2023-04-07T11:52:02;9.63;;;2.05;;
55931;SDS011;41837;55.700;37.984;2023-04-07T11:54:46;9.05;;;1.75;;
55931;SDS011;41837;55.700;37.984;2023-04-07T11:57:23;6.20;;;1.73;;
55931;SDS011;41837;55.700;37.984;2023-04-07T12:00:03;5.88;;;1.60;;
55931;SDS011;41837;55.700;37.984;2023-04-07T12:02:31;5.15;;;1.13;;
55931;SDS011;41837;55.700;37.984;2023-04-07T12:04:58;4.70;;;1.02;;
55931;SDS011;41837;55.700;37.984;2023-04-07T12:07:24;4.13;;;1.77;;
55931;SDS011;41837;55.700;37.984;2023-04-07T12:09:50;4.45;;;1.20;;
55931;SDS011;41837;55.700;37.984;2023-04-07T12:12:27;6.70;;;1.23;;
55931;SDS011;41837;55.700;37.984;2023-04-07T12:14:54;4.57;;;1.33;;
55931;SDS011;41837;55.700;37.984;2023-04-07T12:17:24;4.47;;;1.30;;
55931;SDS011;41837;55.700;37.984;2023-04-07T12:19:52;4.20;;;1.98;;
55931;SDS011;41837;55.700;37.984;2023-04-07T12:22:18;8.25;;;1.67;;
55931;SDS011;41837;55.700;37.984;2023-04-07T12:24:44;7.63;;;1.33;;
55931;SDS011;41837;55.700;37.984;2023-04-07T12:27:11;7.07;;;2.65;;
55931;SDS011;41837;55.700;37.984;2023-04-07T12:29:38;3.67;;;1.77;;
55931;SDS011;41837;55.700;37.984;2023-04-07T12:32:05;10.00;;;1.55;;
55931;SDS011;41837;55.700;37.984;2023-04-07T12:34:31;5.60;;;1.58;;
55931;SDS011;41837;55.700;37.984;2023-04-07T12:36:57;6.13;;;1.73;;
55931;SDS011;41837;55.700;37.984;2023-04-07T12:39:22;7.10;;;2.10;;
55931;SDS011;41837;55.700;37.984;2023-04-07T12:41:48;5.25;;;1.52;;
55931;SDS011;41837;55.700;37.984;2023-04-07T12:44:17;3.75;;;1.25;;
55931;SDS011;41837;55.700;37.984;2023-04-07T12:46:44;5.05;;;1.38;;
55931;SDS011;41837;55.700;37.984;2023-04-07T12:49:10;7.68;;;1.25;;
55931;SDS011;41837;55.700;37.984;2023-04-07T12:51:36;6.85;;;2.30;;
55931;SDS011;41837;55.700;37.984;2023-04-07T12:54:04;10.65;;;2.00;;
55931;SDS011;41837;55.700;37.984;2023-04-07T12:56:30;5.65;;;1.63;;
55931;SDS011;41837;55.700;37.984;2023-04-07T12:58:56;8.20;;;1.85;;
55931;SDS011;41837;55.700;37.984;2023-04-07T13:01:22;6.15;;;1.55;;
55931;SDS011;41837;55.700;37.984;2023-04-07T13:03:48;4.40;;;1.67;;
55931;SDS011;41837;55.700;37.984;2023-04-07T13:06:15;4.35;;;1.38;;
55931;SDS011;41837;55.700;37.984;2023-04-07T13:08:42;9.95;;;2.13;;
55931;SDS011;41837;55.700;37.984;2023-04-07T13:11:08;11.55;;;3.78;;
55931;SDS011;41837;55.700;37.984;2023-04-07T13:13:35;14.20;;;3.25;;
55931;SDS011;41837;55.700;37.984;2023-04-07T13:16:02;13.25;;;4.95;;
55931;SDS011;41837;55.700;37.984;2023-04-07T13:18:27;7.63;;;3.15;;
55931;SDS011;41837;55.700;37.984;2023-04-07T13:20:54;7.97;;;3.65;;
55931;SDS011;41837;55.700;37.984;2023-04-07T13:23:20;16.50;;;3.90;;
55931;SDS011;41837;55.700;37.984;2023-04-07T13:25:46;6.75;;;2.22;;
55931;SDS011;41837;55.700;37.984;2023-04-07T13:28:13;11.07;;;4.15;;
55931;SDS011;41837;55.700;37.984;2023-04-07T13:30:41;21.98;;;6.85;;
55931;SDS011;41837;55.700;37.984;2023-04-07T13:33:07;5.68;;;2.50;;
55931;SDS011;41837;55.700;37.984;2023-04-07T13:35:34;13.45;;;2.20;;
55931;SDS011;41837;55.700;37.984;2023-04-07T13:38:01;9.38;;;3.80;;
55931;SDS011;41837;55.700;37.984;2023-04-07T13:40:28;11.02;;;4.85;;
55931;SDS011;41837;55.700;37.984;2023-04-07T13:42:54;14.10;;;5.28;;
55931;SDS011;41837;55.700;37.984;2023-04-07T13:45:22;10.80;;;3.90;;
55931;SDS011;41837;55.700;37.984;2023-04-07T13:47:48;13.13;;;3.75;;
55931;SDS011;41837;55.700;37.984;2023-04-07T13:50:15;7.85;;;2.75;;
55931;SDS011;41837;55.700;37.984;2023-04-07T13:52:42;11.70;;;3.92;;
55931;SDS011;41837;55.700;37.984;2023-04-07T13:55:08;6.50;;;2.38;;
55931;SDS011;41837;55.700;37.984;2023-04-07T13:57:34;16.20;;;4.07;;
55931;SDS011;41837;55.700;37.984;2023-04-07T14:00:00;11.25;;;3.95;;
55931;SDS011;41837;55.700;37.984;2023-04-07T14:02:27;11.30;;;3.38;;
55931;SDS011;41837;55.700;37.984;2023-04-07T14:04:54;12.98;;;3.53;;
55931;SDS011;41837;55.700;37.984;2023-04-07T14:07:21;10.00;;;3.45;;
55931;SDS011;41837;55.700;37.984;2023-04-07T14:09:48;10.13;;;3.03;;
55931;SDS011;41837;55.700;37.984;2023-04-07T14:12:14;4.72;;;2.15;;
55931;SDS011;41837;55.700;37.984;2023-04-07T14:14:40;8.35;;;2.10;;
55931;SDS011;41837;55.700;37.984;2023-04-07T14:17:06;13.80;;;2.00;;
55931;SDS011;41837;55.700;37.984;2023-04-07T14:19:32;13.50;;;3.55;;
55931;SDS011;41837;55.700;37.984;2023-04-07T14:21:59;7.30;;;2.20;;
55931;SDS011;41837;55.700;37.984;2023-04-07T14:24:26;8.80;;;2.22;;
55931;SDS011;41837;55.700;37.984;2023-04-07T14:26:52;6.90;;;2.00;;
55931;SDS011;41837;55.700;37.984;2023-04-07T14:29:19;6.10;;;2.08;;
55931;SDS011;41837;55.700;37.984;2023-04-07T14:31:45;3.95;;;2.00;;
55931;SDS011;41837;55.700;37.984;2023-04-07T14:34:13;10.48;;;2.65;;
55931;SDS011;41837;55.700;37.984;2023-04-07T14:36:39;9.85;;;3.22;;
55931;SDS011;41837;55.700;37.984;2023-04-07T14:39:06;6.30;;;2.80;;
55931;SDS011;41837;55.700;37.984;2023-04-07T14:41:33;8.70;;;2.70;;
55931;SDS011;41837;55.700;37.984;2023-04-07T14:43:59;5.40;;;2.70;;
55931;SDS011;41837;55.700;37.984;2023-04-07T14:46:26;10.82;;;3.05;;
55931;SDS011;41837;55.700;37.984;2023-04-07T14:48:52;12.95;;;5.32;;
55931;SDS011;41837;55.700;37.984;2023-04-07T14:51:18;12.30;;;4.65;;
55931;SDS011;41837;55.700;37.984;2023-04-07T14:53:45;19.75;;;6.25;;
55931;SDS011;41837;55.700;37.984;2023-04-07T14:56:12;12.30;;;3.70;;
55931;SDS011;41837;55.700;37.984;2023-04-07T14:58:38;13.27;;;2.65;;
55931;SDS011;41837;55.700;37.984;2023-04-07T15:01:05;15.60;;;5.13;;
55931;SDS011;41837;55.700;37.984;2023-04-07T15:03:32;19.45;;;6.18;;
55931;SDS011;41837;55.700;37.984;2023-04-07T15:06:05;11.20;;;4.80;;
55931;SDS011;41837;55.700;37.984;2023-04-07T15:08:32;7.60;;;4.28;;
55931;SDS011;41837;55.700;37.984;2023-04-07T15:10:58;16.02;;;2.65;;